RU-0425 weather

CLOSED Kislovodsk Airport
Kislovodsk, Stavropol Krai, Russia

Public forecast

Using degrees Celsius for public forecast. Weather courtesy of forecast.io.

Closest aviation weather report (METAR) to Kislovodsk Airport

Closest report is Mineralnyye Vody Airport, 25.7 nm (47.6 km) NE. Retrieved 2020/02/20 04:30 UTC (5 minutes ago):

URMM 200430Z 27003MPS 9999 NSC M03/M05 Q1016 R12/090070 NOSIG RMK QFE733/0978

Closest aviation forecast (TAF) to Kislovodsk Airport

Closest forecast is Mineralnyye Vody Airport, 25.7 nm (47.6 km) NE. Retrieved 2020-02-20 03:24 UTC (1 hour ago):

TAF URMM 200200Z 2003/2103 27003G08MPS 9999 NSC TX11/2012Z TNM02/2003Z TEMPO 2003/2007 3100 BR BKN011 BECMG 2005/2007 11003G08MPS TEMPO 2007/2016 10005G12MPS TEMPO 2016/2103 3100 BR BKN011